Time;durP1;ratioP1;P1;durP2;ratioP2;P2;SDS_P1;SDS_P2;PMS_P1;PMS_P2;Temp;Humidity;BMP_temperature;BMP_pressure;BME280_temperature;BME280_humidity;BME280_pressure;Samples;Min_cycle;Max_cycle;Signal;HPM_P1;HPM_P2
2022/12/15 00:40:41;;;;;;;5.53;4.68;;;22.00;29.30;;;;;;6116518;23;20017;-65
2022/12/15 00:43:10;;;;;;;5.07;4.57;;;22.00;29.30;;;;;;6066532;23;20129;-65
2022/12/15 00:48:21;;;;;;;5.47;4.97;;;21.90;29.30;;;;;;6117911;23;20017;-66
2022/12/15 00:50:53;;;;;;;5.13;4.63;;;22.00;29.30;;;;;;6116808;23;20097;-65
2022/12/15 01:20:57;;;;;;;4.82;4.32;;;21.90;29.00;;;;;;6117431;23;20041;-64
2022/12/15 01:23:23;;;;;;;5.13;4.43;;;21.90;29.00;;;;;;6091479;23;20018;-64
2022/12/15 01:25:52;;;;;;;4.82;4.43;;;21.90;29.60;;;;;;6089815;23;20022;-64
2022/12/15 01:28:20;;;;;;;4.35;3.95;;;21.90;28.90;;;;;;6116986;23;20497;-64
2022/12/15 01:30:46;;;;;;;4.38;3.97;;;21.90;28.90;;;;;;6116826;23;20032;-64
2022/12/15 01:33:12;;;;;;;4.53;4.13;;;21.90;28.90;;;;;;6116890;23;20101;-65
2022/12/15 01:35:38;;;;;;;4.53;4.13;;;21.90;28.90;;;;;;6116652;23;20046;-64
2022/12/15 01:38:04;;;;;;;4.47;4.07;;;21.90;28.80;;;;;;6091524;23;20030;-64
2022/12/15 01:40:45;;;;;;;4.28;3.85;;;21.90;28.70;;;;;;6117118;23;20080;-64
2022/12/15 01:43:19;;;;;;;;;;;21.90;28.70;;;;;;6117158;23;20013;-64
2022/12/15 01:45:49;;;;;;;4.07;3.67;;;21.90;28.60;;;;;;6114977;23;19927;-65
2022/12/15 01:48:27;;;;;;;4.15;3.80;;;21.90;28.80;;;;;;6116824;23;20014;-64
2022/12/15 01:51:01;;;;;;;4.57;4.05;;;21.90;28.70;;;;;;6092542;23;20045;-65
2022/12/15 01:53:29;;;;;;;4.43;4.03;;;21.90;28.70;;;;;;6118761;23;20041;-64
2022/12/15 01:55:55;;;;;;;4.45;4.05;;;21.90;28.70;;;;;;6092636;23;20645;-64
2022/12/15 01:58:22;;;;;;;4.05;3.75;;;21.90;28.60;;;;;;6119100;23;20354;-64
2022/12/15 02:00:47;;;;;;;4.07;3.67;;;21.90;28.60;;;;;;6118339;23;20069;-64
2022/12/15 02:03:13;;;;;;;4.30;3.72;;;21.90;28.60;;;;;;6119773;23;20010;-64
2022/12/15 02:05:41;;;;;;;4.25;3.83;;;21.90;28.60;;;;;;6117750;23;20900;-64
2022/12/15 02:08:08;;;;;;;4.10;3.80;;;21.90;28.60;;;;;;6092382;23;20018;-65
2022/12/15 02:10:41;;;;;;;4.35;3.95;;;21.90;28.60;;;;;;6092552;23;20092;-65
2022/12/15 02:13:25;;;;;;;4.35;3.95;;;21.90;28.60;;;;;;6119056;23;20025;-65
2022/12/15 02:16:04;;;;;;;4.43;4.03;;;21.90;28.50;;;;;;6117362;23;20323;-65
2022/12/15 02:18:57;;;;;;;4.25;3.85;;;21.90;28.50;;;;;;6119330;23;20077;-64
2022/12/15 02:21:29;;;;;;;4.10;3.80;;;21.90;28.50;;;;;;6091661;23;20014;-64
2022/12/15 02:24:23;;;;;;;4.57;4.18;;;21.90;28.60;;;;;;6119170;23;20017;-64
2022/12/15 02:27:28;;;;;;;4.50;4.10;;;21.80;28.40;;;;;;6091547;23;20065;-64
2022/12/15 02:30:12;;;;;;;4.35;3.92;;;21.80;28.40;;;;;;6118479;23;20096;-64
2022/12/15 02:33:01;;;;;;;4.15;3.75;;;21.80;28.50;;;;;;6118511;23;20026;-64
2022/12/15 02:35:42;;;;;;;3.90;3.53;;;21.80;28.40;;;;;;6117191;23;20026;-64
2022/12/15 02:38:08;;;;;;;;;;;21.80;28.50;;;;;;6119771;23;20114;-64
2022/12/15 02:40:35;;;;;;;4.05;3.75;;;21.80;28.30;;;;;;6118211;23;19918;-64
2022/12/15 02:43:04;;;;;;;3.70;3.40;;;21.70;28.50;;;;;;6117369;23;20014;-65
2022/12/15 02:46:00;;;;;;;3.92;3.63;;;21.80;28.50;;;;;;6117833;23;20038;-65
2022/12/15 02:48:51;;;;;;;4.50;3.80;;;21.80;28.60;;;;;;6117977;23;20666;-64
2022/12/15 02:51:34;;;;;;;3.78;3.47;;;21.80;28.30;;;;;;6118763;23;20028;-64
2022/12/15 02:54:21;;;;;;;4.50;3.70;;;21.80;28.40;;;;;;6118514;23;20097;-64
2022/12/15 02:57:10;;;;;;;4.28;3.83;;;21.70;28.30;;;;;;6117138;23;20057;-65
2022/12/15 02:59:45;;;;;;;3.72;3.42;;;21.70;28.30;;;;;;6118613;23;20010;-65
2022/12/15 03:02:12;;;;;;;3.90;3.60;;;21.70;28.30;;;;;;6118362;23;20014;-65
2022/12/15 03:04:38;;;;;;;4.00;3.60;;;21.70;28.30;;;;;;6092060;23;20006;-64
2022/12/15 03:07:08;;;;;;;4.30;3.90;;;21.70;28.30;;;;;;6116887;23;20072;-64
2022/12/15 03:09:34;;;;;;;4.07;3.60;;;21.70;28.30;;;;;;6118217;23;20521;-65
2022/12/15 03:12:00;;;;;;;3.53;3.22;;;21.70;28.30;;;;;;6117602;23;20017;-64
2022/12/15 03:14:27;;;;;;;4.13;3.72;;;21.70;28.30;;;;;;6118526;23;20057;-68
2022/12/15 03:16:53;;;;;;;3.90;3.53;;;21.70;28.30;;;;;;6089830;23;20018;-64
2022/12/15 03:19:19;;;;;;;4.22;3.67;;;21.70;28.20;;;;;;6118733;23;20033;-64
2022/12/15 03:21:45;;;;;;;4.35;3.72;;;21.70;28.20;;;;;;6118246;23;20323;-64
2022/12/15 03:24:11;;;;;;;3.92;3.53;;;21.70;28.20;;;;;;6091135;23;20574;-65
2022/12/15 03:26:36;;;;;;;3.95;3.58;;;21.70;28.20;;;;;;6117392;23;20014;-65
2022/12/15 03:29:02;;;;;;;3.65;3.35;;;21.70;28.20;;;;;;6091031;23;20101;-66
2022/12/15 03:31:28;;;;;;;3.67;3.38;;;21.70;28.20;;;;;;6116629;23;20372;-65
2022/12/15 03:33:54;;;;;;;3.47;3.17;;;21.70;28.20;;;;;;6087856;23;20054;-65
2022/12/15 03:36:21;;;;;;;3.70;3.40;;;21.60;28.10;;;;;;6038735;23;20479;-64
2022/12/15 03:38:47;;;;;;;3.58;3.28;;;21.60;28.20;;;;;;6090144;23;20018;-64
2022/12/15 03:41:13;;;;;;;3.90;3.60;;;21.60;28.20;;;;;;6089785;23;20365;-64
2022/12/15 03:43:39;;;;;;;3.70;3.40;;;21.60;28.30;;;;;;6089013;23;20014;-64
2022/12/15 03:46:05;;;;;;;3.38;3.08;;;21.50;28.20;;;;;;6062068;23;20050;-65
2022/12/15 03:48:30;;;;;;;3.97;3.25;;;21.40;28.30;;;;;;6089366;23;20765;-64
2022/12/15 03:50:56;;;;;;;3.88;3.47;;;21.30;28.80;;;;;;6088791;23;20149;-64
2022/12/15 03:53:22;;;;;;;3.80;3.40;;;21.10;28.50;;;;;;6063181;23;20447;-65
2022/12/15 03:55:47;;;;;;;4.13;3.78;;;21.00;28.50;;;;;;6088022;23;20082;-65
2022/12/15 03:58:13;;;;;;;4.20;3.50;;;20.90;28.70;;;;;;6086825;23;20015;-63
2022/12/15 04:00:38;;;;;;;3.50;3.20;;;20.70;28.70;;;;;;6088627;23;20018;-64
2022/12/15 04:03:04;;;;;;;3.90;3.30;;;20.60;29.00;;;;;;6063173;23;20024;-65
2022/12/15 04:05:33;;;;;;;3.45;3.15;;;20.60;29.20;;;;;;6088724;23;20062;-64
2022/12/15 04:08:00;;;;;;;3.67;3.38;;;20.70;29.10;;;;;;6088425;23;20018;-64
2022/12/15 04:10:28;;;;;;;4.03;3.65;;;20.90;28.90;;;;;;6088794;23;21011;-64
2022/12/15 04:13:05;;;;;;;3.33;3.03;;;21.10;28.70;;;;;;6088536;23;20097;-65
2022/12/15 04:15:31;;;;;;;3.90;3.50;;;21.30;28.40;;;;;;6063330;23;20029;-64
2022/12/15 04:17:57;;;;;;;3.28;3.00;;;21.40;28.20;;;;;;6063024;23;20045;-64
2022/12/15 04:20:23;;;;;;;3.80;3.40;;;21.50;28.10;;;;;;6088388;23;20074;-65
2022/12/15 04:22:49;;;;;;;3.53;3.22;;;21.60;28.00;;;;;;6063596;23;20802;-64
2022/12/15 05:31:53;;;;;;;3.35;2.90;;;21.70;27.60;;;;;;6091741;23;20124;-64
2022/12/15 05:34:27;;;;;;;2.85;2.60;;;21.60;27.60;;;;;;6118836;23;20402;-64
2022/12/15 05:36:54;;;;;;;3.55;3.25;;;21.70;27.60;;;;;;6118080;23;20043;-65
2022/12/15 05:39:20;;;;;;;2.97;2.67;;;21.60;27.60;;;;;;6068146;23;20320;-65
2022/12/15 05:41:46;;;;;;;2.80;2.60;;;21.60;27.60;;;;;;6118973;23;20010;-64
2022/12/15 05:44:12;;;;;;;2.88;2.60;;;21.60;27.60;;;;;;6092921;23;20045;-67
2022/12/15 05:46:38;;;;;;;4.03;3.20;;;21.50;27.70;;;;;;6117622;23;20042;-64
2022/12/15 05:49:06;;;;;;;2.60;2.40;;;21.40;27.70;;;;;;6092168;23;20022;-64
2022/12/15 05:51:35;;;;;;;2.72;2.53;;;21.20;27.80;;;;;;6092068;23;20018;-64
2022/12/15 05:54:01;;;;;;;3.92;3.42;;;21.10;27.90;;;;;;6092127;23;20010;-65
2022/12/15 05:56:27;;;;;;;3.20;3.00;;;20.80;28.00;;;;;;6116884;23;20314;-64
2022/12/15 05:58:57;;;;;;;5.40;2.92;;;20.70;28.40;;;;;;6118250;23;20037;-64
2022/12/15 06:01:24;;;;;;;4.80;2.60;;;20.60;28.60;;;;;;6091096;23;20064;-66
2022/12/15 06:03:49;;;;;;;3.47;2.53;;;20.80;28.70;;;;;;6113317;23;20009;-64
2022/12/15 06:06:15;;;;;;;4.18;2.58;;;21.10;28.50;;;;;;6089595;23;20049;-64
2022/12/15 06:08:42;;;;;;;2.97;2.47;;;21.60;28.40;;;;;;6092632;23;20026;-64
2022/12/15 06:11:11;;;;;;;5.03;2.85;;;21.90;28.10;;;;;;6117366;23;20107;-64
2022/12/15 06:13:37;;;;;;;5.75;2.90;;;22.30;27.90;;;;;;6118237;23;20389;-65
2022/12/15 06:16:11;;;;;;;5.35;2.55;;;22.50;27.70;;;;;;6117503;23;20060;-64
2022/12/15 06:18:39;;;;;;;4.65;2.67;;;22.60;27.60;;;;;;6118547;23;20025;-63
2022/12/15 06:21:14;;;;;;;2.90;2.30;;;22.70;27.50;;;;;;6117027;23;20014;-64
2022/12/15 06:23:40;;;;;;;2.60;2.33;;;22.90;27.50;;;;;;6090509;23;20320;-64
2022/12/15 06:26:19;;;;;;;5.30;2.45;;;23.10;27.40;;;;;;6114108;23;20041;-64
2022/12/15 06:28:46;;;;;;;3.88;2.40;;;23.20;27.30;;;;;;6115043;23;20018;-63
2022/12/15 06:31:13;;;;;;;2.78;2.20;;;23.30;27.10;;;;;;6116248;23;20093;-63
2022/12/15 06:33:39;;;;;;;3.80;2.63;;;23.50;27.10;;;;;;6116461;23;20502;-64
2022/12/15 06:36:08;;;;;;;2.67;2.40;;;23.60;26.90;;;;;;6113461;23;20454;-63
2022/12/15 06:38:35;;;;;;;2.67;2.45;;;23.80;26.90;;;;;;6088864;23;20319;-64
2022/12/15 06:41:02;;;;;;;4.82;2.65;;;23.80;26.80;;;;;;6115476;23;20010;-64
2022/12/15 06:43:28;;;;;;;2.97;2.22;;;23.80;26.90;;;;;;6090810;23;20474;-64
2022/12/15 06:45:54;;;;;;;5.47;2.03;;;23.80;27.00;;;;;;6116856;23;20029;-64
2022/12/15 06:48:22;;;;;;;2.30;2.03;;;23.80;26.90;;;;;;6117312;23;20040;-64
2022/12/15 06:50:48;;;;;;;2.38;2.17;;;23.90;26.90;;;;;;6090688;23;20064;-64
2022/12/15 06:53:18;;;;;;;2.50;2.30;;;24.00;26.90;;;;;;6089808;23;20104;-64
2022/12/15 06:55:45;;;;;;;2.22;2.03;;;24.00;26.80;;;;;;6091927;23;20022;-64
2022/12/15 06:58:11;;;;;;;7.70;2.60;;;24.00;26.80;;;;;;6117193;23;20053;-64
2022/12/15 07:00:37;;;;;;;5.03;1.90;;;23.80;27.10;;;;;;6117840;23;20036;-64
2022/12/15 07:03:09;;;;;;;2.65;2.13;;;23.40;27.40;;;;;;6092128;23;20017;-64
2022/12/15 07:05:35;;;;;;;2.60;2.30;;;22.90;27.80;;;;;;6117900;23;20025;-64
2022/12/15 07:08:01;;;;;;;2.15;1.95;;;22.50;28.10;;;;;;6092238;23;20603;-65
2022/12/15 07:10:27;;;;;;;3.78;2.10;;;22.40;28.30;;;;;;6092404;23;20022;-62
2022/12/15 07:12:56;;;;;;;4.65;2.40;;;22.50;28.40;;;;;;6090881;23;20517;-64
2022/12/15 07:15:22;;;;;;;2.67;2.05;;;22.80;28.20;;;;;;6091184;23;20018;-65
2022/12/15 07:17:48;;;;;;;3.45;2.00;;;23.10;28.00;;;;;;6091771;23;20379;-64
2022/12/15 07:20:14;;;;;;;2.47;2.20;;;23.40;27.70;;;;;;6116461;23;20024;-65
2022/12/15 07:22:40;;;;;;;2.78;2.20;;;23.60;27.50;;;;;;6116537;23;20014;-65
2022/12/15 07:25:06;;;;;;;4.70;2.30;;;23.80;27.40;;;;;;6089455;23;20021;-64
2022/12/15 07:27:32;;;;;;;4.10;2.08;;;23.90;27.40;;;;;;6066776;23;20164;-64
2022/12/15 07:29:57;;;;;;;3.78;2.15;;;23.90;27.40;;;;;;6114812;23;20093;-64
2022/12/15 07:32:23;;;;;;;2.15;2.00;;;23.90;27.50;;;;;;6089796;23;20096;-64
2022/12/15 07:34:49;;;;;;;2.65;2.35;;;23.90;27.50;;;;;;6064709;23;20025;-64
2022/12/15 07:37:15;;;;;;;2.50;2.10;;;24.00;27.50;;;;;;6066526;23;20529;-64
2022/12/15 07:39:41;;;;;;;2.42;2.20;;;24.00;27.50;;;;;;6089329;23;20022;-64
2022/12/15 07:42:07;;;;;;;2.88;1.90;;;24.00;28.10;;;;;;6115134;23;20041;-65
2022/12/15 07:44:32;;;;;;;2.40;2.20;;;24.00;27.60;;;;;;6088507;23;20010;-64
2022/12/15 07:46:58;;;;;;;4.63;2.13;;;24.00;27.50;;;;;;6063422;23;20457;-65
2022/12/15 07:49:24;;;;;;;2.85;1.70;;;24.10;27.60;;;;;;6115526;23;20363;-64
2022/12/15 07:51:49;;;;;;;3.08;1.60;;;24.10;27.50;;;;;;6088658;23;20021;-65
2022/12/15 07:54:15;;;;;;;2.80;2.03;;;24.20;27.60;;;;;;6086136;23;20029;-64
2022/12/15 07:56:41;;;;;;;2.63;1.83;;;24.10;27.60;;;;;;6112701;23;20014;-64
2022/12/15 07:59:07;;;;;;;3.75;2.08;;;24.00;27.60;;;;;;6113481;23;20042;-64
2022/12/15 08:01:34;;;;;;;2.20;2.00;;;24.00;27.70;;;;;;6088539;23;20049;-63
2022/12/15 08:04:00;;;;;;;3.38;1.90;;;24.00;27.80;;;;;;6088471;23;20347;-64
2022/12/15 08:06:26;;;;;;;2.53;2.10;;;23.90;27.80;;;;;;6088407;23;20069;-63
2022/12/15 08:08:52;;;;;;;2.35;2.10;;;23.90;27.80;;;;;;6115573;23;20398;-62
2022/12/15 08:11:20;;;;;;;2.40;2.20;;;23.80;27.80;;;;;;6089622;23;20073;-65
2022/12/15 08:13:46;;;;;;;2.92;1.88;;;23.70;28.00;;;;;;6114693;23;20025;-63
2022/12/15 08:16:12;;;;;;;2.63;2.05;;;23.40;28.50;;;;;;6108804;23;20014;-64
2022/12/15 08:18:38;;;;;;;2.47;1.90;;;23.00;28.70;;;;;;6115360;23;20338;-63
2022/12/15 08:21:05;;;;;;;2.60;2.30;;;22.60;29.00;;;;;;6089818;23;20073;-63
2022/12/15 08:23:31;;;;;;;2.50;2.20;;;22.30;29.10;;;;;;6085724;23;20442;-64
2022/12/15 08:26:06;;;;;;;2.38;1.80;;;22.20;29.10;;;;;;6087719;23;20010;-64
2022/12/15 08:28:33;;;;;;;2.00;1.80;;;22.50;29.00;;;;;;6089972;23;20061;-63
2022/12/15 08:31:11;;;;;;;2.33;2.10;;;22.80;28.70;;;;;;6116198;23;20485;-62
2022/12/15 08:33:38;;;;;;;2.83;1.98;;;23.10;28.30;;;;;;6066041;23;20018;-63
2022/12/15 08:36:06;;;;;;;2.75;2.10;;;23.30;28.10;;;;;;6089715;23;20466;-60
2022/12/15 08:38:34;;;;;;;2.40;2.20;;;23.50;28.00;;;;;;6089742;23;20065;-63
2022/12/15 08:41:18;;;;;;;2.30;2.10;;;23.60;27.90;;;;;;6116225;23;20017;-62
2022/12/15 08:43:45;;;;;;;2.28;2.08;;;23.70;27.80;;;;;;6065182;23;20383;-61
2022/12/15 08:46:11;;;;;;;3.17;2.05;;;23.80;27.80;;;;;;6115705;23;20018;-63
2022/12/15 08:48:37;;;;;;;4.43;2.63;;;23.80;27.70;;;;;;6116375;23;20018;-62
2022/12/15 08:51:03;;;;;;;3.70;2.33;;;23.90;27.70;;;;;;6113603;23;20327;-61
2022/12/15 08:53:29;;;;;;;2.92;2.40;;;23.80;27.80;;;;;;6115556;23;20045;-61
2022/12/15 08:56:05;;;;;;;3.08;2.00;;;23.80;27.90;;;;;;6088538;23;20327;-62
2022/12/15 08:58:32;;;;;;;6.90;2.15;;;23.80;28.00;;;;;;6088669;23;20013;-61
2022/12/15 09:01:03;;;;;;;4.07;2.40;;;23.60;28.10;;;;;;6088082;23;20725;-61
2022/12/15 09:03:28;;;;;;;4.13;2.38;;;23.40;28.30;;;;;;6090486;23;20483;-62
2022/12/15 09:05:56;;;;;;;6.57;1.95;;;23.30;29.00;;;;;;6090198;23;20380;-61
2022/12/15 09:08:23;;;;;;;2.20;2.00;;;23.20;28.50;;;;;;6116851;23;20434;-61
2022/12/15 09:10:50;;;;;;;3.65;2.00;;;23.20;28.60;;;;;;6115008;23;20414;-61
2022/12/15 09:13:16;;;;;;;3.88;2.10;;;23.20;28.60;;;;;;6065546;23;20022;-62
2022/12/15 09:15:44;;;;;;;3.85;2.38;;;23.20;28.60;;;;;;6066540;23;20645;-62
2022/12/15 09:18:10;;;;;;;4.13;2.42;;;23.20;28.60;;;;;;6090747;23;20418;-62
2022/12/15 09:20:36;;;;;;;4.68;2.53;;;23.20;28.50;;;;;;6090377;23;20014;-61
2022/12/15 09:23:02;;;;;;;3.08;2.08;;;23.20;28.50;;;;;;6091452;23;20505;-62
2022/12/15 09:25:28;;;;;;;4.35;2.40;;;23.30;28.50;;;;;;6116232;23;20093;-61
2022/12/15 09:27:54;;;;;;;3.97;2.10;;;23.20;28.40;;;;;;6090254;23;20328;-62
2022/12/15 09:30:20;;;;;;;3.22;2.47;;;23.20;28.40;;;;;;6114785;23;20090;-63
2022/12/15 09:32:46;;;;;;;2.42;2.22;;;23.20;28.30;;;;;;6089127;23;20037;-62
2022/12/15 09:35:11;;;;;;;3.70;2.33;;;23.20;28.30;;;;;;6088088;23;20077;-62
2022/12/15 09:37:37;;;;;;;2.17;1.98;;;23.20;29.00;;;;;;6089658;23;20022;-62
2022/12/15 09:40:05;;;;;;;2.55;2.25;;;23.20;28.30;;;;;;6115416;23;20093;-62
2022/12/15 09:42:31;;;;;;;3.15;2.00;;;23.20;28.40;;;;;;6114866;23;20017;-63
2022/12/15 09:45:20;;;;;;;2.40;2.20;;;23.00;28.40;;;;;;6088893;23;20029;-62
2022/12/15 09:47:53;;;;;;;2.63;2.40;;;22.80;29.20;;;;;;6065052;23;20018;-62
2022/12/15 09:50:28;;;;;;;2.47;2.17;;;22.50;29.00;;;;;;6087236;23;20437;-62
2022/12/15 09:52:59;;;;;;;2.83;2.42;;;22.10;29.30;;;;;;6088296;23;20187;-62
2022/12/15 09:55:25;;;;;;;;;;;21.90;29.40;;;;;;6116102;23;20065;-63
2022/12/15 09:57:53;;;;;;;2.72;2.05;;;21.80;29.40;;;;;;6114337;23;20568;-63
2022/12/15 10:00:20;;;;;;;2.63;2.42;;;21.90;29.40;;;;;;6114453;23;20105;-62
2022/12/15 10:03:04;;;;;;;3.50;2.30;;;22.00;29.80;;;;;;6089668;23;20442;-62
2022/12/15 10:05:52;;;;;;;2.33;2.03;;;22.20;29.00;;;;;;6063937;23;20533;-61
2022/12/15 10:08:19;;;;;;;2.85;2.00;;;22.40;28.80;;;;;;6064063;23;20088;-62
2022/12/15 10:10:56;;;;;;;3.85;2.08;;;22.50;28.70;;;;;;6063691;23;20044;-61
2022/12/15 10:13:37;;;;;;;2.80;2.40;;;22.60;28.60;;;;;;6090955;23;20350;-61
2022/12/15 10:16:04;;;;;;;;;;;22.70;28.50;;;;;;6117421;23;20397;-61
2022/12/15 10:19:07;;;;;;;2.10;1.90;;;22.80;28.50;;;;;;6065579;23;19931;-62
2022/12/15 10:21:33;;;;;;;2.72;2.20;;;22.80;28.40;;;;;;6090118;23;20795;-63
2022/12/15 10:24:14;;;;;;;2.35;2.10;;;22.80;28.40;;;;;;6090753;23;20021;-62
2022/12/15 10:26:42;;;;;;;7.07;2.50;;;22.80;28.30;;;;;;6116449;23;20018;-63
2022/12/15 10:29:55;;;;;;;2.92;2.17;;;22.90;28.30;;;;;;6090815;23;20018;-63
2022/12/15 10:32:35;;;;;;;2.33;2.10;;;22.90;28.30;;;;;;6089540;23;20026;-61
2022/12/15 10:35:07;;;;;;;2.60;2.20;;;22.80;28.50;;;;;;6088341;23;20018;-62
2022/12/15 10:37:33;;;;;;;2.30;2.00;;;22.80;28.60;;;;;;6116783;23;20101;-62
2022/12/15 10:39:59;;;;;;;3.13;2.30;;;22.80;28.70;;;;;;6115980;23;20666;-61
2022/12/15 10:42:26;;;;;;;2.72;2.17;;;22.80;28.60;;;;;;6115958;23;20052;-61
2022/12/15 10:45:00;;;;;;;3.72;1.90;;;22.80;28.50;;;;;;6065977;23;20013;-61
2022/12/15 10:47:30;;;;;;;2.35;1.95;;;22.90;28.50;;;;;;6116262;23;20068;-61
2022/12/15 10:50:16;;;;;;;2.43;1.87;;;22.90;28.50;;;;;;6089450;23;20024;-61
2022/12/15 10:52:42;;;;;;;2.45;1.95;;;22.90;28.40;;;;;;6066068;23;20026;-61
2022/12/15 10:55:31;;;;;;;2.50;2.17;;;22.90;28.40;;;;;;6065701;23;20017;-61
2022/12/15 10:58:00;;;;;;;3.90;1.80;;;22.90;28.30;;;;;;6115645;23;20041;-62
2022/12/15 11:00:31;;;;;;;3.13;2.20;;;22.90;28.40;;;;;;6064827;23;20120;-61
2022/12/15 11:02:57;;;;;;;4.50;2.40;;;22.90;28.40;;;;;;6089282;23;20505;-61
2022/12/15 11:05:24;;;;;;;3.42;2.20;;;22.80;28.40;;;;;;6117361;23;20006;-61
2022/12/15 11:08:12;;;;;;;2.20;2.05;;;22.80;28.40;;;;;;6117770;23;20018;-62
2022/12/15 11:13:33;;;;;;;3.75;2.25;;;22.90;28.50;;;;;;6093066;23;20489;-62
2022/12/15 11:16:13;;;;;;;3.15;1.73;;;22.80;28.40;;;;;;6115420;23;20120;-62
2022/12/15 11:18:52;;;;;;;3.53;2.00;;;22.90;28.40;;;;;;6115703;23;20320;-63
2022/12/15 11:21:47;;;;;;;3.58;2.10;;;22.80;28.40;;;;;;6063284;23;20037;-63
2022/12/15 11:24:44;;;;;;;4.75;2.00;;;22.80;28.40;;;;;;6065544;23;20025;-63
2022/12/15 11:27:27;;;;;;;2.72;2.08;;;22.80;28.60;;;;;;6114989;23;20029;-62
2022/12/15 11:30:18;;;;;;;3.20;2.00;;;22.80;28.70;;;;;;6088912;23;20786;-64
2022/12/15 11:32:47;;;;;;;5.43;2.30;;;22.80;28.90;;;;;;6114160;23;20029;-63
2022/12/15 11:35:17;;;;;;;6.05;2.40;;;22.80;29.00;;;;;;6114570;23;20049;-62
2022/12/15 11:37:59;;;;;;;4.50;2.20;;;22.80;29.00;;;;;;6090856;23;20010;-63
2022/12/15 11:40:40;;;;;;;2.90;2.00;;;22.80;29.80;;;;;;6114737;23;20577;-63
2022/12/15 11:43:42;;;;;;;10.13;2.30;;;22.80;29.30;;;;;;6116306;23;20089;-63
2022/12/15 11:46:29;;;;;;;3.63;1.85;;;22.80;29.40;;;;;;5986644;23;20775;-63
2022/12/15 11:49:19;;;;;;;4.47;2.05;;;22.80;29.50;;;;;;6089805;23;20359;-63
2022/12/15 11:52:11;;;;;;;4.00;1.92;;;22.90;29.50;;;;;;6089813;23;20021;-63
2022/12/15 11:54:52;;;;;;;3.15;1.90;;;22.90;29.50;;;;;;6090629;23;20043;-63
2022/12/15 11:57:58;;;;;;;4.03;2.25;;;22.90;29.60;;;;;;6115703;23;20029;-62
2022/12/15 12:00:23;;;;;;;8.55;2.13;;;22.90;29.60;;;;;;5983937;23;20019;-64
2022/12/15 12:03:12;;;;;;;3.85;1.98;;;22.80;29.50;;;;;;6115542;23;20016;-62
2022/12/15 12:05:59;;;;;;;4.88;2.35;;;22.80;29.70;;;;;;6088206;23;20014;-63
2022/12/15 12:08:46;;;;;;;4.38;2.00;;;22.80;29.70;;;;;;6090178;23;20022;-61
2022/12/15 12:11:12;;;;;;;3.80;2.28;;;22.80;29.80;;;;;;6088776;23;20022;-62
2022/12/15 12:14:03;;;;;;;3.47;2.30;;;22.80;29.80;;;;;;6088236;23;20022;-62
2022/12/15 12:17:18;;;;;;;4.60;1.85;;;22.80;29.90;;;;;;6114504;23;20017;-62
2022/12/15 12:19:59;;;;;;;3.92;1.85;;;22.80;30.00;;;;;;5969222;24;20020;-61
2022/12/15 12:22:31;;;;;;;4.28;1.92;;;22.80;30.00;;;;;;5968153;24;20024;-62
2022/12/15 12:25:13;;;;;;;2.90;2.05;;;22.80;30.00;;;;;;6033554;23;20025;-61
2022/12/15 12:27:51;;;;;;;3.20;1.90;;;22.90;30.10;;;;;;6064696;23;20049;-62
2022/12/15 12:30:21;;;;;;;4.25;2.20;;;22.90;30.10;;;;;;6115520;23;20029;-62
2022/12/15 12:32:47;;;;;;;3.43;1.90;;;22.80;30.00;;;;;;6088677;23;20025;-61
2022/12/15 12:35:30;;;;;;;4.28;2.13;;;22.80;30.00;;;;;;6114975;23;20535;-61
2022/12/15 12:38:02;;;;;;;4.25;2.00;;;22.80;30.10;;;;;;6088824;23;20021;-62
2022/12/15 12:40:56;;;;;;;4.03;1.92;;;22.80;30.10;;;;;;6115601;23;20060;-62
2022/12/15 12:43:41;;;;;;;4.57;2.20;;;22.80;30.10;;;;;;6065576;23;20316;-62
2022/12/15 12:46:38;;;;;;;5.38;2.17;;;22.80;30.00;;;;;;6114963;23;20394;-62
2022/12/15 12:49:26;;;;;;;3.50;1.83;;;22.90;30.00;;;;;;6089666;23;20120;-62
2022/12/15 12:51:54;;;;;;;2.65;2.00;;;22.80;30.00;;;;;;6114866;23;20395;-62
2022/12/15 12:54:34;;;;;;;3.42;2.03;;;22.90;30.00;;;;;;6115112;23;20435;-61
2022/12/15 12:57:10;;;;;;;3.50;1.90;;;22.90;29.90;;;;;;6089182;23;20137;-62
2022/12/15 12:59:40;;;;;;;5.53;1.98;;;22.90;29.90;;;;;;6115511;23;20066;-62
2022/12/15 13:02:23;;;;;;;3.60;1.83;;;22.80;29.90;;;;;;6088435;23;20017;-63
2022/12/15 13:05:03;;;;;;;3.90;1.92;;;22.80;29.70;;;;;;6114093;23;20016;-63
2022/12/15 13:07:39;;;;;;;3.92;2.10;;;22.80;29.70;;;;;;6114116;23;20052;-64
2022/12/15 13:10:08;;;;;;;3.22;2.15;;;22.90;29.80;;;;;;6064238;23;20022;-65
2022/12/15 13:12:50;;;;;;;2.75;2.13;;;22.80;29.80;;;;;;6087628;23;20046;-64
2022/12/15 13:15:42;;;;;;;3.40;2.08;;;22.80;29.80;;;;;;6088454;23;20017;-65
2022/12/15 13:18:18;;;;;;;3.22;2.10;;;22.90;29.70;;;;;;6075930;23;20096;-65
2022/12/15 13:20:46;;;;;;;3.25;2.30;;;22.90;29.70;;;;;;6116095;23;20010;-65
2022/12/15 13:23:18;;;;;;;3.88;2.13;;;22.80;29.70;;;;;;6114288;23;20010;-65
2022/12/15 13:25:52;;;;;;;7.95;2.60;;;22.80;29.60;;;;;;6087964;23;20024;-64
2022/12/15 13:28:41;;;;;;;3.00;2.45;;;22.80;29.70;;;;;;6064629;23;20137;-65
2022/12/15 13:31:16;;;;;;;2.58;2.38;;;22.80;29.70;;;;;;6089076;23;20026;-64
2022/12/15 13:33:48;;;;;;;2.80;2.42;;;22.80;29.70;;;;;;6088614;23;20101;-65
2022/12/15 13:36:36;;;;;;;4.10;2.38;;;22.80;29.70;;;;;;6115220;23;20048;-65
2022/12/15 13:39:13;;;;;;;4.20;2.50;;;22.80;29.60;;;;;;6089559;23;20018;-65
2022/12/15 13:41:45;;;;;;;2.78;2.20;;;22.80;29.60;;;;;;6088716;23;20017;-65
2022/12/15 13:44:23;;;;;;;6.50;2.20;;;22.80;29.70;;;;;;6114841;23;20022;-65
2022/12/15 13:46:52;;;;;;;4.07;2.42;;;22.80;29.60;;;;;;6089605;23;20033;-65
2022/12/15 13:49:41;;;;;;;2.42;2.08;;;22.80;29.70;;;;;;6090913;23;20014;-64
2022/12/15 13:52:19;;;;;;;2.35;2.15;;;22.80;29.70;;;;;;6090399;23;20017;-65
2022/12/15 13:54:52;;;;;;;6.43;2.42;;;22.80;29.70;;;;;;6066851;23;20013;-64
2022/12/15 13:57:19;;;;;;;2.40;2.20;;;22.80;29.70;;;;;;6090752;23;20049;-65
2022/12/15 14:00:17;;;;;;;4.60;2.53;;;22.80;29.70;;;;;;6091152;23;20025;-65
2022/12/15 14:02:43;;;;;;;3.75;2.45;;;22.80;29.70;;;;;;6089536;23;20088;-65
2022/12/15 14:05:24;;;;;;;3.15;2.60;;;22.70;29.70;;;;;;6089174;23;20057;-65
2022/12/15 14:07:53;;;;;;;2.80;2.50;;;22.70;29.80;;;;;;6090375;23;20021;-65
2022/12/15 14:10:41;;;;;;;2.83;2.22;;;22.70;29.80;;;;;;6117123;23;20077;-65
2022/12/15 14:13:18;;;;;;;2.50;2.30;;;22.70;29.80;;;;;;6066139;23;20021;-65
2022/12/15 14:15:49;;;;;;;3.08;2.47;;;22.70;29.80;;;;;;6115952;23;20022;-65
2022/12/15 14:18:28;;;;;;;4.13;2.80;;;22.70;29.80;;;;;;6091319;23;20114;-65
2022/12/15 14:20:55;;;;;;;2.58;2.38;;;22.70;29.80;;;;;;6090046;23;20017;-65
2022/12/15 14:23:29;;;;;;;2.90;2.33;;;22.70;29.80;;;;;;6116468;23;20016;-65
2022/12/15 14:26:06;;;;;;;3.35;2.38;;;22.70;29.90;;;;;;6116168;23;20045;-64
2022/12/15 14:28:34;;;;;;;3.58;2.60;;;22.70;29.80;;;;;;6088764;23;20030;-63
2022/12/15 14:31:15;;;;;;;3.15;2.58;;;22.70;29.80;;;;;;6116446;23;20068;-63
2022/12/15 14:33:44;;;;;;;2.83;2.45;;;22.70;29.80;;;;;;6091092;23;20025;-63
2022/12/15 14:36:13;;;;;;;3.78;2.90;;;22.70;29.80;;;;;;6090526;23;20469;-63
2022/12/15 14:38:48;;;;;;;3.30;2.70;;;22.70;29.80;;;;;;6090786;23;20593;-63
2022/12/15 14:41:24;;;;;;;3.42;2.80;;;22.70;29.70;;;;;;6090636;23;20022;-63
2022/12/15 14:43:54;;;;;;;2.92;2.47;;;22.70;29.80;;;;;;6115347;23;20018;-63
2022/12/15 14:46:24;;;;;;;4.00;2.60;;;22.80;29.80;;;;;;6114469;23;20018;-63
2022/12/15 14:48:59;;;;;;;2.38;2.17;;;22.80;29.70;;;;;;6115645;23;20018;-63
2022/12/15 14:51:27;;;;;;;3.33;2.40;;;22.80;29.80;;;;;;6089834;23;20018;-63
2022/12/15 14:53:54;;;;;;;4.00;2.38;;;22.80;29.70;;;;;;6066300;23;20358;-62
2022/12/15 14:56:20;;;;;;;3.90;2.63;;;22.80;29.70;;;;;;6040556;23;20022;-63
2022/12/15 14:59:17;;;;;;;4.13;2.60;;;22.80;29.70;;;;;;6113872;23;20029;-63
2022/12/15 15:01:52;;;;;;;4.65;2.63;;;22.70;29.70;;;;;;6111147;23;20097;-62
2022/12/15 15:04:32;;;;;;;4.65;2.78;;;22.70;29.80;;;;;;6115535;23;20021;-62
2022/12/15 15:07:01;;;;;;;4.40;2.77;;;22.70;29.80;;;;;;6114715;23;20014;-63
2022/12/15 15:09:37;;;;;;;3.33;2.95;;;22.70;29.80;;;;;;6115528;23;20014;-62
2022/12/15 15:12:07;;;;;;;4.60;2.80;;;22.70;29.80;;;;;;6115950;23;20045;-62
2022/12/15 15:14:52;;;;;;;3.83;3.17;;;22.70;29.90;;;;;;6066691;23;20866;-63
2022/12/15 15:17:25;;;;;;;4.65;2.72;;;22.60;30.30;;;;;;6066403;23;20343;-63
2022/12/15 15:19:57;;;;;;;8.15;3.65;;;22.30;30.60;;;;;;6116098;23;20541;-63
2022/12/15 15:22:41;;;;;;;5.40;3.53;;;22.00;30.90;;;;;;6115979;23;20040;-63
2022/12/15 15:25:32;;;;;;;4.68;3.67;;;21.70;31.00;;;;;;6089563;23;20764;-63
2022/12/15 15:28:27;;;;;;;7.38;3.85;;;21.40;31.20;;;;;;6088294;23;20053;-62
2022/12/15 15:30:56;;;;;;;4.72;3.50;;;21.20;31.60;;;;;;6077869;23;20021;-63
2022/12/15 15:33:23;;;;;;;4.05;3.70;;;21.00;32.20;;;;;;6065518;23;20033;-62
2022/12/15 15:35:53;;;;;;;5.97;4.25;;;20.90;32.30;;;;;;6064797;23;20100;-62